Time;durP1;ratioP1;P1;durP2;ratioP2;P2;SDS_P1;SDS_P2;PMS_P1;PMS_P2;Temp;Humidity;BMP_temperature;BMP_pressure;BME280_temperature;BME280_humidity;BME280_pressure;Samples;Min_cycle;Max_cycle;Signal;HPM_P1;HPM_P2
2022/04/28 00:00:42;;;;;;;14.53;7.60;;;9.80;93.40;;;;;;4968448;28;20630;-70
2022/04/28 00:03:10;;;;;;;11.13;7.93;;;9.80;93.70;;;;;;4962343;28;20654;-69
2022/04/28 00:05:38;;;;;;;12.53;7.90;;;9.70;94.00;;;;;;4963518;28;20204;-69
2022/04/28 00:08:06;;;;;;;11.77;7.47;;;9.80;94.50;;;;;;4962152;28;20269;-71
2022/04/28 00:10:35;;;;;;;17.10;7.63;;;9.70;94.90;;;;;;4955048;28;20244;-69
2022/04/28 00:13:02;;;;;;;14.27;8.20;;;9.70;95.30;;;;;;4961640;28;20211;-70
2022/04/28 00:15:29;;;;;;;11.50;7.57;;;9.60;95.70;;;;;;4957447;28;20664;-71
2022/04/28 00:17:56;;;;;;;9.37;6.73;;;9.60;96.00;;;;;;4965563;28;20232;-69
2022/04/28 00:20:23;;;;;;;12.93;8.17;;;9.60;96.40;;;;;;4956648;28;20215;-70
2022/04/28 00:22:50;;;;;;;11.17;7.53;;;9.60;96.70;;;;;;4971235;28;20224;-70
2022/04/28 00:25:17;;;;;;;10.57;7.33;;;9.50;97.10;;;;;;4955371;28;20292;-70
2022/04/28 00:27:45;;;;;;;13.97;7.83;;;9.50;97.50;;;;;;4953308;28;20299;-71
2022/04/28 00:30:12;;;;;;;10.60;7.17;;;9.50;97.90;;;;;;4955322;28;20236;-71
2022/04/28 00:32:39;;;;;;;15.67;8.40;;;9.50;98.30;;;;;;4958367;28;20209;-70
2022/04/28 00:35:06;;;;;;;12.63;8.70;;;9.40;98.70;;;;;;4957551;28;20290;-70
2022/04/28 00:37:33;;;;;;;13.83;8.33;;;9.40;99.30;;;;;;4965221;28;20213;-70
2022/04/28 00:40:01;;;;;;;12.97;8.47;;;9.30;99.70;;;;;;4970657;28;20280;-70
2022/04/28 00:42:29;;;;;;;13.37;8.13;;;9.30;99.90;;;;;;4954690;28;20224;-69
2022/04/28 00:44:57;;;;;;;13.40;8.00;;;9.20;99.90;;;;;;4955073;28;20236;-70
2022/04/28 00:50:38;;;;;;;11.77;7.93;;;9.20;99.90;;;;;;4960220;28;20746;-69
2022/04/28 00:52:59;;;;;;;12.77;7.80;;;9.00;99.90;;;;;;4955120;28;20208;-68
2022/04/28 00:55:28;;;;;;;12.80;7.43;;;8.90;99.90;;;;;;4953734;28;20414;-68
2022/04/28 00:57:56;;;;;;;12.13;6.70;;;8.90;99.90;;;;;;4953934;28;20220;-69
2022/04/28 01:00:24;;;;;;;10.87;7.07;;;8.90;99.90;;;;;;4962387;28;20703;-68
2022/04/28 01:02:51;;;;;;;10.67;7.07;;;8.80;99.90;;;;;;4959994;28;20260;-69
2022/04/28 01:05:18;;;;;;;11.37;7.60;;;8.80;99.90;;;;;;4955363;28;20393;-69
2022/04/28 01:07:45;;;;;;;11.13;7.47;;;8.80;99.90;;;;;;4961229;28;20213;-68
2022/04/28 01:10:12;;;;;;;11.30;7.30;;;8.70;99.90;;;;;;4956967;28;20235;-69
2022/04/28 01:12:39;;;;;;;16.03;7.70;;;8.70;99.90;;;;;;4959445;28;20623;-69
2022/04/28 01:15:07;;;;;;;9.83;7.17;;;8.60;99.90;;;;;;4958499;28;20299;-68
2022/04/28 01:17:35;;;;;;;11.37;6.90;;;8.60;99.90;;;;;;4964638;28;20299;-68
2022/04/28 01:20:02;;;;;;;10.67;6.60;;;8.60;99.90;;;;;;4956737;28;20312;-69
2022/04/28 01:22:31;;;;;;;13.57;7.43;;;8.60;99.90;;;;;;4969058;28;20236;-69
2022/04/28 01:25:03;;;;;;;10.50;6.63;;;8.60;99.90;;;;;;4956340;28;20567;-70
2022/04/28 01:27:30;;;;;;;12.97;7.20;;;8.50;99.90;;;;;;4954837;28;20201;-68
2022/04/28 01:29:57;;;;;;;10.83;6.83;;;8.40;99.90;;;;;;4955431;28;20205;-69
2022/04/28 01:32:24;;;;;;;10.30;6.30;;;8.50;99.90;;;;;;4955572;28;20264;-69
2022/04/28 01:34:50;;;;;;;11.27;7.00;;;8.50;99.90;;;;;;4965094;28;20268;-68
2022/04/28 01:37:17;;;;;;;8.87;6.30;;;8.50;99.90;;;;;;4958797;28;20248;-69
2022/04/28 01:39:45;;;;;;;13.47;7.17;;;8.50;99.90;;;;;;4962005;28;20239;-69
2022/04/28 01:42:12;;;;;;;13.03;7.37;;;8.50;99.90;;;;;;4960282;28;20375;-69
2022/04/28 01:44:39;;;;;;;9.23;6.20;;;8.50;99.90;;;;;;4960580;28;20723;-69
2022/04/28 01:47:06;;;;;;;9.90;6.17;;;8.50;99.90;;;;;;4960043;28;20739;-69
2022/04/28 01:49:33;;;;;;;9.03;5.97;;;8.40;99.90;;;;;;4962169;28;20289;-69
2022/04/28 01:55:01;;;;;;;9.73;6.23;;;8.50;99.90;;;;;;4971322;28;20208;-68
2022/04/28 01:57:29;;;;;;;9.97;5.73;;;8.50;99.90;;;;;;4959903;28;20221;-68
2022/04/28 02:00:00;;;;;;;7.33;5.13;;;8.50;99.90;;;;;;4964829;28;20307;-69
2022/04/28 02:02:27;;;;;;;7.47;4.87;;;8.50;99.90;;;;;;4960953;28;20242;-68
2022/04/28 02:04:58;;;;;;;8.37;5.00;;;8.40;99.90;;;;;;4959172;28;20220;-68
2022/04/28 02:07:26;;;;;;;6.27;4.70;;;8.40;99.90;;;;;;4965855;28;20663;-68
2022/04/28 02:09:54;;;;;;;7.17;5.13;;;8.40;99.90;;;;;;4971542;28;20210;-69
2022/04/28 02:12:22;;;;;;;7.00;5.00;;;8.30;99.90;;;;;;4971413;28;20286;-68
2022/04/28 02:14:49;;;;;;;7.10;5.13;;;8.40;99.90;;;;;;4941303;29;20220;-68
2022/04/28 02:17:17;;;;;;;7.50;4.50;;;8.40;99.90;;;;;;4959579;28;20316;-69
2022/04/28 02:19:44;;;;;;;7.80;4.33;;;8.30;99.90;;;;;;4964256;28;20213;-68
2022/04/28 02:22:11;;;;;;;6.80;4.77;;;8.30;99.90;;;;;;4978380;28;20274;-68
2022/04/28 02:24:38;;;;;;;7.10;4.50;;;8.30;99.90;;;;;;4960985;28;20382;-69
2022/04/28 02:27:07;;;;;;;8.17;4.60;;;8.30;99.90;;;;;;4958893;28;20202;-69
2022/04/28 02:29:34;;;;;;;5.30;3.83;;;8.30;99.90;;;;;;4966648;28;20276;-69
2022/04/28 02:32:01;;;;;;;9.07;4.80;;;8.40;99.90;;;;;;4959392;28;20214;-69
2022/04/28 02:34:28;;;;;;;8.17;4.67;;;8.40;99.90;;;;;;4973345;28;20208;-68
2022/04/28 02:36:55;;;;;;;8.10;5.17;;;8.40;99.90;;;;;;4964084;28;20319;-69
2022/04/28 02:39:22;;;;;;;8.97;5.67;;;8.40;99.90;;;;;;4965872;28;20248;-69
2022/04/28 02:41:49;;;;;;;7.80;4.93;;;8.40;99.90;;;;;;4971754;28;20283;-68
2022/04/28 02:44:17;;;;;;;6.03;4.60;;;8.40;99.90;;;;;;4966503;28;20655;-67
2022/04/28 02:46:45;;;;;;;7.90;5.93;;;8.40;99.90;;;;;;4975281;28;20218;-68
2022/04/28 02:49:12;;;;;;;8.00;4.90;;;8.40;99.90;;;;;;4958467;28;20957;-68
2022/04/28 02:51:40;;;;;;;7.33;5.13;;;8.40;99.90;;;;;;4957770;28;20689;-68
2022/04/28 02:54:07;;;;;;;11.67;5.87;;;8.40;99.90;;;;;;4959276;28;20249;-69
2022/04/28 02:56:35;;;;;;;8.57;6.00;;;8.30;99.90;;;;;;4958279;28;20240;-69
2022/04/28 02:59:02;;;;;;;11.53;5.73;;;8.20;99.90;;;;;;4957365;28;20670;-69
2022/04/28 03:01:30;;;;;;;9.33;5.97;;;8.20;99.90;;;;;;4969333;28;20209;-68
2022/04/28 03:03:57;;;;;;;8.67;5.77;;;8.10;99.90;;;;;;4964349;28;20727;-69
2022/04/28 03:11:54;;;;;;;10.80;6.80;;;8.00;99.90;;;;;;4967327;28;20341;-69
2022/04/28 03:14:22;;;;;;;9.93;6.50;;;8.00;99.90;;;;;;4959923;28;20215;-68
2022/04/28 03:16:50;;;;;;;10.17;6.30;;;7.90;99.90;;;;;;4970441;28;20229;-68
2022/04/28 03:19:17;;;;;;;11.70;6.33;;;7.90;99.90;;;;;;4968246;28;20306;-69
2022/04/28 03:21:44;;;;;;;7.83;5.20;;;7.90;99.90;;;;;;4971449;28;20328;-69
2022/04/28 03:24:11;;;;;;;8.83;5.23;;;7.80;99.90;;;;;;4957699;28;20248;-69
2022/04/28 03:26:39;;;;;;;9.23;5.90;;;7.80;99.90;;;;;;4956793;28;20248;-69
2022/04/28 03:29:06;;;;;;;9.77;5.53;;;7.70;99.90;;;;;;4958168;28;20212;-68
2022/04/28 03:31:32;;;;;;;8.43;5.57;;;7.70;99.90;;;;;;4961253;28;20205;-69
2022/04/28 03:34:01;;;;;;;10.23;6.30;;;7.60;99.90;;;;;;4957971;28;20205;-68
2022/04/28 03:39:12;;;;;;;8.53;5.90;;;7.60;99.90;;;;;;4963609;28;20208;-68
2022/04/28 03:41:39;;;;;;;12.03;5.70;;;7.60;99.90;;;;;;4961700;28;20296;-68
2022/04/28 03:44:05;;;;;;;13.20;5.80;;;7.60;99.90;;;;;;4963559;28;20240;-68
2022/04/28 03:46:32;;;;;;;10.40;6.20;;;7.60;99.90;;;;;;4961249;28;20258;-67
2022/04/28 03:49:01;;;;;;;8.50;5.13;;;7.60;99.90;;;;;;4960927;28;20205;-68
2022/04/28 03:51:27;;;;;;;9.20;5.97;;;7.60;99.90;;;;;;4961475;28;20210;-68
2022/04/28 03:53:59;;;;;;;10.83;5.93;;;7.60;99.90;;;;;;4968905;28;20293;-69
2022/04/28 03:56:27;;;;;;;7.83;5.30;;;7.60;99.90;;;;;;4963647;28;20308;-68
2022/04/28 03:58:54;;;;;;;9.97;5.83;;;7.70;99.90;;;;;;4964964;28;20268;-68
2022/04/28 04:01:20;;;;;;;9.33;6.43;;;7.70;99.90;;;;;;4962426;28;20484;-68
2022/04/28 04:03:47;;;;;;;10.70;5.37;;;7.80;99.90;;;;;;4962167;28;20285;-69
2022/04/28 04:06:16;;;;;;;9.47;6.00;;;7.80;99.90;;;;;;4971726;28;20235;-69
2022/04/28 04:08:43;;;;;;;6.40;4.53;;;7.80;99.90;;;;;;4968728;28;20327;-69
2022/04/28 04:11:10;;;;;;;11.03;5.53;;;7.90;99.90;;;;;;4962761;28;20287;-69
2022/04/28 04:13:37;;;;;;;7.50;5.40;;;7.90;99.90;;;;;;4965843;28;20202;-68
2022/04/28 04:16:04;;;;;;;8.97;5.57;;;8.00;99.90;;;;;;4956458;28;20678;-69
2022/04/28 04:18:31;;;;;;;8.27;5.03;;;8.00;99.90;;;;;;4963625;28;20216;-68
2022/04/28 04:20:58;;;;;;;9.53;5.03;;;8.10;99.90;;;;;;4971628;28;20228;-69
2022/04/28 04:23:26;;;;;;;8.40;5.37;;;8.10;99.90;;;;;;4970870;28;20228;-69
2022/04/28 04:25:53;;;;;;;7.70;5.17;;;8.10;99.90;;;;;;4968481;28;20240;-71
2022/04/28 04:28:20;;;;;;;7.03;5.57;;;8.20;99.90;;;;;;4964404;28;20250;-68
2022/04/28 04:33:31;;;;;;;8.03;4.83;;;8.20;99.90;;;;;;4961506;28;20561;-69
2022/04/28 04:35:58;;;;;;;8.10;4.97;;;8.10;99.90;;;;;;4965094;28;20217;-68
2022/04/28 04:38:26;;;;;;;6.93;4.30;;;8.10;99.90;;;;;;4957955;28;20659;-68
2022/04/28 04:40:53;;;;;;;9.07;4.77;;;8.10;99.90;;;;;;4962850;28;20331;-69
2022/04/28 04:43:20;;;;;;;9.47;5.20;;;8.10;99.90;;;;;;4960718;28;20754;-68
2022/04/28 04:45:47;;;;;;;7.37;4.90;;;8.10;99.90;;;;;;4960038;28;20240;-69
2022/04/28 04:48:14;;;;;;;7.33;4.53;;;8.20;99.90;;;;;;4957232;28;20232;-68
2022/04/28 04:50:41;;;;;;;8.40;5.03;;;8.20;99.90;;;;;;4964893;28;20204;-68
2022/04/28 04:53:08;;;;;;;9.47;4.97;;;8.30;99.90;;;;;;4960075;28;20295;-68
2022/04/28 04:55:37;;;;;;;7.13;5.17;;;8.40;99.90;;;;;;4959791;28;20209;-68
2022/04/28 04:58:04;;;;;;;8.27;5.00;;;8.40;99.90;;;;;;4959255;28;20231;-68
2022/04/28 05:00:31;;;;;;;10.97;5.23;;;8.50;99.90;;;;;;4963839;28;20209;-69
2022/04/28 05:02:58;;;;;;;7.70;5.13;;;8.50;99.90;;;;;;4964284;28;20205;-67
2022/04/28 05:05:25;;;;;;;7.47;5.17;;;8.60;99.90;;;;;;4971504;28;20684;-68
2022/04/28 05:07:52;;;;;;;7.07;4.90;;;8.70;99.90;;;;;;4955479;28;20296;-69
2022/04/28 05:10:19;;;;;;;11.63;5.93;;;8.90;99.90;;;;;;4957108;28;20585;-69
2022/04/28 05:12:47;;;;;;;8.97;5.17;;;9.00;99.90;;;;;;4963053;28;20268;-69
2022/04/28 05:15:14;;;;;;;10.40;5.63;;;9.10;99.90;;;;;;4967646;28;20291;-69
2022/04/28 05:17:44;;;;;;;6.80;5.07;;;9.10;99.90;;;;;;4964768;28;20261;-69
2022/04/28 05:20:13;;;;;;;9.07;5.13;;;9.30;99.90;;;;;;4977420;28;20259;-69
2022/04/28 05:22:40;;;;;;;10.07;5.67;;;9.20;99.90;;;;;;4969840;28;20646;-68
2022/04/28 05:25:08;;;;;;;6.77;4.90;;;9.30;99.90;;;;;;4959465;28;20227;-68
2022/04/28 05:27:34;;;;;;;9.00;5.57;;;9.40;99.90;;;;;;4959957;28;20711;-68
2022/04/28 05:30:03;;;;;;;8.60;5.67;;;9.50;99.90;;;;;;4960510;28;20293;-68
2022/04/28 05:32:30;;;;;;;10.57;6.60;;;9.50;99.90;;;;;;4968238;28;20216;-69
2022/04/28 05:34:57;;;;;;;9.77;5.57;;;9.60;99.90;;;;;;4977018;28;20201;-68
2022/04/28 05:37:25;;;;;;;8.97;5.57;;;9.80;99.90;;;;;;4964312;28;20221;-69
2022/04/28 05:39:52;;;;;;;9.30;5.53;;;9.80;99.90;;;;;;4972785;28;20212;-68
2022/04/28 05:42:19;;;;;;;8.90;4.90;;;9.90;99.90;;;;;;4969188;28;20209;-70
2022/04/28 05:47:32;;;;;;;9.20;5.80;;;10.20;99.90;;;;;;4972079;28;20240;-70
2022/04/28 05:49:59;;;;;;;9.33;6.00;;;10.40;99.90;;;;;;4978301;28;20208;-69
2022/04/28 05:52:26;;;;;;;11.07;5.60;;;10.60;99.80;;;;;;4973650;28;20291;-70
2022/04/28 05:54:53;;;;;;;11.87;5.43;;;10.80;99.30;;;;;;4965509;28;20241;-69
2022/04/28 05:57:20;;;;;;;6.60;4.67;;;11.00;98.60;;;;;;4967766;28;20288;-69
2022/04/28 05:59:46;;;;;;;10.97;5.97;;;11.20;98.30;;;;;;4962790;28;20672;-68
2022/04/28 06:02:13;;;;;;;9.37;5.77;;;11.30;97.80;;;;;;4964781;28;20277;-68
2022/04/28 06:04:41;;;;;;;8.77;6.03;;;11.10;96.90;;;;;;4967361;28;20229;-69
2022/04/28 06:07:10;;;;;;;10.07;6.43;;;11.60;96.90;;;;;;4967533;28;20671;-68
2022/04/28 06:09:36;;;;;;;7.90;5.20;;;11.70;96.50;;;;;;4973632;28;20259;-70
2022/04/28 06:12:04;;;;;;;12.93;5.78;;;11.80;95.90;;;;;;4971071;28;20446;-69
2022/04/28 06:14:31;;;;;;;11.57;5.53;;;11.90;95.60;;;;;;4964709;28;20702;-69
2022/04/28 06:16:57;;;;;;;8.07;5.70;;;12.10;95.20;;;;;;4964947;28;20235;-68
2022/04/28 06:19:25;;;;;;;7.80;5.53;;;12.10;94.70;;;;;;4971439;28;20300;-69
2022/04/28 06:21:54;;;;;;;12.00;5.33;;;12.10;94.50;;;;;;4970505;28;20233;-67
2022/04/28 06:24:20;;;;;;;12.07;5.63;;;12.30;94.30;;;;;;4966619;28;20628;-68
2022/04/28 06:26:47;;;;;;;9.57;5.77;;;12.40;93.90;;;;;;4974804;28;20218;-69
2022/04/28 06:29:14;;;;;;;8.87;5.30;;;12.60;93.50;;;;;;4969078;28;20298;-66
2022/04/28 06:31:41;;;;;;;12.27;5.83;;;12.70;93.10;;;;;;4975914;28;20695;-72
2022/04/28 06:34:08;;;;;;;12.23;5.07;;;12.80;92.90;;;;;;4972764;28;20212;-67
2022/04/28 06:36:35;;;;;;;7.57;5.13;;;12.90;92.80;;;;;;4975692;28;20200;-69
2022/04/28 06:39:04;;;;;;;9.70;5.40;;;13.00;92.50;;;;;;4973774;28;20205;-69
2022/04/28 06:41:30;;;;;;;10.30;5.70;;;13.20;92.10;;;;;;4959071;28;20259;-70
2022/04/28 06:43:57;;;;;;;8.13;5.70;;;13.20;91.60;;;;;;4958891;28;20686;-68
2022/04/28 06:46:24;;;;;;;10.23;5.47;;;13.30;91.20;;;;;;4973168;28;20211;-70
2022/04/28 06:48:51;;;;;;;11.80;5.87;;;13.40;91.00;;;;;;4972945;28;20269;-68
2022/04/28 06:51:18;;;;;;;10.63;5.73;;;13.40;90.70;;;;;;4965312;28;20628;-70
2022/04/28 06:53:45;;;;;;;8.73;5.67;;;13.40;90.40;;;;;;4962476;28;20240;-70
2022/04/28 06:56:14;;;;;;;9.33;5.30;;;13.40;90.30;;;;;;4969604;28;20749;-68
2022/04/28 06:58:41;;;;;;;11.20;5.47;;;13.40;90.10;;;;;;4966104;28;20244;-70
2022/04/28 07:01:08;;;;;;;14.07;5.83;;;13.30;90.00;;;;;;4970923;28;20224;-70
2022/04/28 07:03:35;;;;;;;7.43;5.43;;;13.30;90.00;;;;;;4974954;28;20267;-69
2022/04/28 07:06:02;;;;;;;11.53;5.03;;;13.20;90.00;;;;;;4964965;28;20287;-68
2022/04/28 07:08:30;;;;;;;15.27;5.83;;;13.10;89.90;;;;;;4967027;28;20221;-70
2022/04/28 07:10:58;;;;;;;11.70;5.67;;;13.00;90.00;;;;;;4973673;28;20218;-68
2022/04/28 07:13:26;;;;;;;9.40;5.47;;;12.90;90.00;;;;;;4966902;28;20563;-68
2022/04/28 07:15:53;;;;;;;7.80;5.07;;;12.80;90.10;;;;;;4961657;28;20239;-69
2022/04/28 07:18:20;;;;;;;9.23;5.53;;;12.80;90.10;;;;;;4976189;28;20224;-68
2022/04/28 07:20:47;;;;;;;7.77;5.50;;;12.80;90.20;;;;;;4965439;28;20284;-68
2022/04/28 07:23:16;;;;;;;19.80;5.93;;;12.70;90.10;;;;;;4957019;28;20297;-70
2022/04/28 07:25:43;;;;;;;7.40;5.30;;;12.70;90.40;;;;;;4958937;28;20759;-69
2022/04/28 07:28:10;;;;;;;7.60;5.10;;;12.80;90.40;;;;;;4961543;28;20213;-69
2022/04/28 07:30:39;;;;;;;10.67;5.53;;;12.80;90.20;;;;;;4966706;28;20735;-70
2022/04/28 07:33:08;;;;;;;9.13;5.50;;;12.70;90.10;;;;;;4965371;28;20569;-69
2022/04/28 07:35:35;;;;;;;12.00;5.93;;;12.60;90.40;;;;;;4966224;28;20238;-69
2022/04/28 07:38:05;;;;;;;11.87;5.57;;;12.60;90.40;;;;;;4975729;28;20288;-69
2022/04/28 07:40:32;;;;;;;9.23;5.20;;;12.60;90.30;;;;;;4964400;28;20247;-70
2022/04/28 07:43:00;;;;;;;6.70;5.23;;;12.70;90.30;;;;;;4972467;28;20209;-70
2022/04/28 07:45:27;;;;;;;7.90;5.13;;;12.60;90.30;;;;;;4974933;28;20208;-69
2022/04/28 07:47:55;;;;;;;7.77;5.20;;;12.70;90.50;;;;;;4970384;28;20213;-70
2022/04/28 07:50:23;;;;;;;8.30;5.67;;;12.70;90.60;;;;;;4962371;28;20283;-68
2022/04/28 07:52:50;;;;;;;7.97;4.87;;;12.70;90.60;;;;;;4961688;28;20256;-70
2022/04/28 07:55:17;;;;;;;9.23;5.10;;;12.80;90.80;;;;;;4960368;28;20213;-70
2022/04/28 07:57:44;;;;;;;9.87;5.73;;;12.80;90.50;;;;;;4960652;28;20241;-70
2022/04/28 08:00:12;;;;;;;9.60;5.03;;;12.80;90.50;;;;;;4963893;28;20217;-71
2022/04/28 08:02:39;;;;;;;7.93;4.97;;;12.90;90.50;;;;;;4964135;28;20288;-70
2022/04/28 08:05:08;;;;;;;7.93;4.77;;;13.00;90.30;;;;;;4960762;28;20209;-70
2022/04/28 08:07:35;;;;;;;10.23;4.83;;;13.20;90.00;;;;;;4964251;28;20213;-69
2022/04/28 08:10:03;;;;;;;13.57;5.20;;;13.20;89.40;;;;;;4959245;28;20220;-69
2022/04/28 08:12:31;;;;;;;7.47;5.10;;;13.30;88.60;;;;;;4971031;28;20252;-69
2022/04/28 08:14:58;;;;;;;9.97;5.07;;;13.50;88.10;;;;;;4960544;28;20216;-70
2022/04/28 08:17:26;;;;;;;9.37;4.97;;;13.50;87.40;;;;;;4956647;28;20300;-70
2022/04/28 08:19:53;;;;;;;8.93;4.77;;;13.80;87.40;;;;;;4945583;28;20214;-66
2022/04/28 08:22:21;;;;;;;9.87;4.80;;;13.80;86.40;;;;;;4964476;28;20229;-70
2022/04/28 08:24:48;;;;;;;8.57;3.93;;;14.00;86.20;;;;;;4968761;28;20663;-68
2022/04/28 08:27:15;;;;;;;6.63;3.90;;;14.10;85.90;;;;;;4958395;28;20209;-68
2022/04/28 08:29:42;;;;;;;7.83;4.50;;;14.30;85.10;;;;;;4958495;28;20221;-68
2022/04/28 08:32:09;;;;;;;11.53;4.50;;;14.40;84.20;;;;;;4963442;28;20280;-68
2022/04/28 08:34:37;;;;;;;8.67;5.20;;;14.50;83.50;;;;;;4966167;28;20300;-68
2022/04/28 08:37:04;;;;;;;12.63;4.60;;;14.70;83.80;;;;;;4965199;28;20653;-69
2022/04/28 08:39:32;;;;;;;9.93;4.57;;;14.80;83.00;;;;;;4964840;28;20661;-68
2022/04/28 08:42:00;;;;;;;9.47;4.40;;;15.00;82.50;;;;;;4966840;28;20272;-67
2022/04/28 08:44:28;;;;;;;9.10;4.83;;;15.30;81.80;;;;;;4962621;28;20497;-68
2022/04/28 08:46:55;;;;;;;10.63;4.60;;;15.50;81.30;;;;;;4959174;28;20245;-70
2022/04/28 08:49:24;;;;;;;9.17;5.63;;;15.60;80.00;;;;;;4968088;28;20617;-67
2022/04/28 08:51:53;;;;;;;8.73;4.07;;;15.80;79.90;;;;;;4973416;28;20204;-69
2022/04/28 08:54:22;;;;;;;12.30;4.60;;;15.90;78.40;;;;;;4962387;28;20201;-69
2022/04/28 08:56:51;;;;;;;8.30;4.47;;;16.00;77.70;;;;;;4960780;28;20221;-68
2022/04/28 08:59:19;;;;;;;11.37;4.43;;;16.20;76.80;;;;;;4967998;28;20265;-69
2022/04/28 09:01:46;;;;;;;7.60;4.43;;;16.30;76.00;;;;;;4966787;28;20208;-68
2022/04/28 09:04:13;;;;;;;8.17;4.87;;;16.60;76.10;;;;;;4967865;28;20201;-68
2022/04/28 09:06:43;;;;;;;7.60;5.27;;;16.80;73.80;;;;;;4967306;28;20272;-68
2022/04/28 09:09:11;;;;;;;6.03;4.27;;;16.80;73.10;;;;;;4963399;28;20204;-72
2022/04/28 09:11:40;;;;;;;6.85;4.30;;;17.00;72.90;;;;;;4964923;28;20267;-68
2022/04/28 09:14:13;;;;;;;6.78;4.50;;;17.30;73.30;;;;;;4964302;28;20293;-69
2022/04/28 09:16:43;;;;;;;7.03;3.90;;;17.70;75.00;;;;;;4970647;28;20208;-68
2022/04/28 09:19:11;;;;;;;5.68;4.30;;;18.10;72.00;;;;;;4964361;28;20236;-70
2022/04/28 09:21:40;;;;;;;5.32;3.92;;;18.50;69.30;;;;;;4960107;28;20260;-69
2022/04/28 09:24:09;;;;;;;7.07;4.32;;;18.80;67.10;;;;;;4963433;28;20301;-69
2022/04/28 09:26:36;;;;;;;6.60;3.92;;;19.00;65.10;;;;;;4966231;28;20217;-69
2022/04/28 09:29:05;;;;;;;13.80;4.55;;;19.00;64.20;;;;;;4961032;28;20690;-68
2022/04/28 09:31:37;;;;;;;6.55;3.92;;;19.00;63.10;;;;;;4964186;28;20686;-70
2022/04/28 09:34:09;;;;;;;5.18;4.03;;;19.00;63.10;;;;;;4965718;28;20213;-69
2022/04/28 09:36:37;;;;;;;6.13;4.15;;;19.20;62.60;;;;;;4968870;28;20799;-69
2022/04/28 09:39:04;;;;;;;6.95;3.95;;;19.30;63.20;;;;;;4964621;28;20745;-69
2022/04/28 09:44:16;;;;;;;5.50;3.30;;;19.70;61.00;;;;;;4966953;28;20240;-69
2022/04/28 09:46:46;;;;;;;6.20;3.70;;;19.80;60.10;;;;;;4976186;28;20291;-68
2022/04/28 09:49:16;;;;;;;5.30;3.20;;;19.90;59.50;;;;;;4972558;28;20292;-66
2022/04/28 09:51:44;;;;;;;6.32;3.95;;;20.10;59.40;;;;;;4971717;28;20253;-69
2022/04/28 09:54:13;;;;;;;9.38;3.90;;;20.10;58.50;;;;;;4973674;28;20670;-70
2022/04/28 09:56:41;;;;;;;3.75;3.45;;;20.30;58.40;;;;;;4977056;28;20240;-68
2022/04/28 09:59:11;;;;;;;5.70;3.60;;;20.40;57.40;;;;;;4978646;28;20224;-69
2022/04/28 10:01:39;;;;;;;6.30;3.40;;;20.50;57.30;;;;;;4965454;28;20213;-68
2022/04/28 10:04:09;;;;;;;4.40;3.03;;;20.70;57.10;;;;;;4977411;28;20247;-68
2022/04/28 10:06:36;;;;;;;7.60;3.30;;;20.90;56.50;;;;;;4965019;28;20245;-68
2022/04/28 10:09:12;;;;;;;4.38;3.67;;;21.10;55.90;;;;;;4960411;28;20225;-67
2022/04/28 10:11:39;;;;;;;3.20;2.90;;;21.30;54.80;;;;;;4958331;28;20217;-69
2022/04/28 10:14:07;;;;;;;5.10;3.45;;;21.40;54.80;;;;;;4959206;28;20631;-67
2022/04/28 10:16:35;;;;;;;6.97;3.85;;;21.70;54.70;;;;;;4966184;28;20271;-67
2022/04/28 10:19:08;;;;;;;6.20;3.47;;;22.10;52.70;;;;;;4970264;28;20315;-68
2022/04/28 10:21:41;;;;;;;3.45;3.15;;;22.20;51.80;;;;;;4959441;28;20233;-66
2022/04/28 10:32:57;;;;;;;4.43;3.53;;;22.70;50.70;;;;;;4966231;28;20266;-69
2022/04/28 10:35:43;;;;;;;5.70;3.00;;;22.70;50.20;;;;;;4958776;28;20213;-66
2022/04/28 10:38:26;;;;;;;4.35;3.17;;;22.80;50.30;;;;;;4970980;28;20271;-67
2022/04/28 10:40:59;;;;;;;5.60;3.50;;;23.10;49.80;;;;;;4968064;28;20688;-68
2022/04/28 10:43:28;;;;;;;4.40;3.97;;;23.20;49.20;;;;;;4960405;28;20205;-67
2022/04/28 10:45:57;;;;;;;3.47;3.05;;;23.20;48.60;;;;;;4974992;28;20259;-67
2022/04/28 10:48:32;;;;;;;4.22;3.60;;;23.30;48.50;;;;;;4960682;28;20209;-67
2022/04/28 10:51:13;;;;;;;6.13;3.85;;;23.40;48.20;;;;;;4957468;28;20220;-68
2022/04/28 10:54:07;;;;;;;3.50;3.20;;;23.60;48.00;;;;;;4968339;28;20255;-66
2022/04/28 10:57:06;;;;;;;4.50;2.60;;;23.60;48.10;;;;;;4958895;28;20212;-67
2022/04/28 10:59:39;;;;;;;3.42;2.95;;;23.60;49.50;;;;;;4962905;28;20328;-66
2022/04/28 11:02:48;;;;;;;4.55;3.20;;;23.30;49.50;;;;;;4961166;28;20209;-67
2022/04/28 11:05:42;;;;;;;3.25;2.95;;;23.00;49.30;;;;;;4961968;28;20228;-66
2022/04/28 11:08:36;;;;;;;9.18;3.90;;;22.80;49.30;;;;;;4953271;28;20214;-67
2022/04/28 11:11:14;;;;;;;4.63;3.35;;;22.70;48.70;;;;;;4961799;28;20221;-68
2022/04/28 11:13:45;;;;;;;5.90;3.42;;;22.60;49.10;;;;;;4957836;28;20232;-69
2022/04/28 11:16:13;;;;;;;5.88;3.28;;;22.50;49.60;;;;;;4957832;28;20244;-68
2022/04/28 11:18:40;;;;;;;5.15;3.65;;;22.50;49.70;;;;;;4964739;28;20319;-67
2022/04/28 11:21:08;;;;;;;7.32;3.70;;;22.50;49.60;;;;;;4960962;28;20287;-68
2022/04/28 11:23:41;;;;;;;4.45;3.00;;;22.60;51.00;;;;;;4960730;28;20638;-66
2022/04/28 11:26:09;;;;;;;5.20;3.00;;;22.80;50.90;;;;;;4958047;28;20578;-68
2022/04/28 11:28:38;;;;;;;4.25;3.00;;;22.70;50.40;;;;;;4965297;28;20647;-70
2022/04/28 11:31:13;;;;;;;4.20;3.45;;;22.50;50.20;;;;;;4968925;28;20216;-67
2022/04/28 11:33:42;;;;;;;4.45;3.47;;;22.40;49.70;;;;;;4958226;28;20297;-67
2022/04/28 11:36:18;;;;;;;5.10;3.55;;;22.20;49.30;;;;;;4964912;28;20271;-67
2022/04/28 11:38:56;;;;;;;5.72;3.53;;;22.10;49.10;;;;;;4970279;28;20717;-67
2022/04/28 11:41:25;;;;;;;4.30;3.47;;;21.90;49.60;;;;;;4956688;28;20237;-66
2022/04/28 11:43:54;;;;;;;4.15;3.47;;;21.90;50.10;;;;;;4976650;28;20255;-65
2022/04/28 11:46:21;;;;;;;3.55;3.17;;;22.00;50.10;;;;;;4962721;28;20223;-66
2022/04/28 11:48:53;;;;;;;4.93;3.90;;;22.10;49.90;;;;;;4963204;28;20198;-66
2022/04/28 11:51:24;;;;;;;5.95;3.10;;;22.00;49.80;;;;;;4960520;28;20209;-67
2022/04/28 11:53:52;;;;;;;4.65;3.20;;;22.00;49.80;;;;;;4962886;28;20220;-66
2022/04/28 11:56:21;;;;;;;4.63;3.88;;;21.90;49.80;;;;;;4960615;28;20213;-68
2022/04/28 11:58:50;;;;;;;4.53;2.85;;;22.00;49.90;;;;;;4957197;28;20610;-66
2022/04/28 12:01:20;;;;;;;5.45;3.40;;;22.10;49.80;;;;;;4955228;28;20213;-66
2022/04/28 12:03:52;;;;;;;4.25;3.63;;;22.10;49.70;;;;;;4967424;28;20209;-67
2022/04/28 12:06:19;;;;;;;3.65;3.20;;;22.10;49.30;;;;;;4962171;28;20213;-65
2022/04/28 12:08:54;;;;;;;4.60;3.22;;;22.20;49.00;;;;;;4958865;28;20593;-65
2022/04/28 12:14:24;;;;;;;4.47;3.42;;;22.50;48.70;;;;;;4959229;28;20709;-66
2022/04/28 12:19:51;;;;;;;5.93;3.30;;;22.50;48.00;;;;;;4955071;28;20236;-66
2022/04/28 12:22:35;;;;;;;4.45;2.90;;;22.50;48.00;;;;;;4965642;28;20232;-65
2022/04/28 12:25:08;;;;;;;5.47;3.42;;;22.60;48.00;;;;;;4958883;28;20209;-69
2022/04/28 12:27:44;;;;;;;4.20;3.80;;;22.50;47.90;;;;;;4961383;28;20206;-68
2022/04/28 12:30:13;;;;;;;3.70;3.00;;;22.40;47.90;;;;;;4965144;28;20260;-67
2022/04/28 12:32:47;;;;;;;5.38;3.75;;;22.30;47.80;;;;;;4966137;28;20299;-65
2022/04/28 12:35:29;;;;;;;5.15;3.70;;;22.40;47.90;;;;;;4957345;28;20241;-66
2022/04/28 12:37:59;;;;;;;4.10;3.53;;;22.60;47.60;;;;;;4961522;28;20208;-66
2022/04/28 12:40:27;;;;;;;3.90;3.25;;;22.80;47.00;;;;;;4958340;28;20240;-66
2022/04/28 12:42:55;;;;;;;3.38;3.00;;;22.90;46.70;;;;;;4957641;28;20217;-67
2022/04/28 12:45:47;;;;;;;6.05;2.80;;;22.90;46.50;;;;;;4966936;28;20279;-66
2022/04/28 12:48:30;;;;;;;3.92;3.47;;;22.90;46.90;;;;;;4957495;28;20627;-66
2022/04/28 12:51:18;;;;;;;4.28;3.25;;;22.80;46.70;;;;;;4963638;28;20300;-66
2022/04/28 12:53:48;;;;;;;7.25;3.50;;;22.80;46.40;;;;;;4957044;28;20251;-67
2022/04/28 12:56:16;;;;;;;5.15;2.70;;;22.70;46.30;;;;;;4958685;28;20201;-67
2022/04/28 12:58:44;;;;;;;3.85;2.90;;;22.70;46.90;;;;;;4961599;28;20213;-67
2022/04/28 13:01:17;;;;;;;4.43;3.17;;;22.70;47.30;;;;;;4963681;28;20216;-68
2022/04/28 13:03:55;;;;;;;5.53;2.70;;;22.70;46.80;;;;;;4964806;28;20288;-68
2022/04/28 13:06:21;;;;;;;2.40;2.20;;;22.50;47.20;;;;;;4967190;28;20205;-68
2022/04/28 13:08:51;;;;;;;5.13;2.97;;;22.40;47.00;;;;;;4958236;28;20220;-68
2022/04/28 13:11:19;;;;;;;3.80;2.55;;;22.20;46.90;;;;;;4967336;28;20707;-67
2022/04/28 13:13:46;;;;;;;2.92;2.58;;;22.10;46.80;;;;;;4966751;28;20213;-68
2022/04/28 13:16:14;;;;;;;3.20;2.40;;;22.00;46.90;;;;;;4963117;28;20618;-68
2022/04/28 13:18:41;;;;;;;3.00;2.50;;;21.90;46.90;;;;;;4959540;28;20265;-67
2022/04/28 13:21:11;;;;;;;4.15;2.65;;;21.90;47.50;;;;;;4960515;28;20233;-68
2022/04/28 13:23:38;;;;;;;3.75;2.53;;;21.90;47.30;;;;;;4960307;28;20276;-67
2022/04/28 13:26:05;;;;;;;4.63;2.65;;;22.00;47.00;;;;;;4964147;28;20265;-67
2022/04/28 13:28:32;;;;;;;4.13;2.40;;;22.00;47.20;;;;;;4974038;28;20275;-67
2022/04/28 13:30:59;;;;;;;4.40;2.30;;;22.10;46.80;;;;;;4964921;28;20208;-68
2022/04/28 13:33:26;;;;;;;4.88;2.40;;;22.00;47.00;;;;;;4961267;28;20192;-68